sensor_id;sensor_type;location;lat;lon;timestamp;P1;durP1;ratioP1;P2;durP2;ratioP2
80623;SDS011;70269;44.768;9.600;2023-05-28T00:00:41;9.63;;;5.90;;
80623;SDS011;70269;44.768;9.600;2023-05-28T00:03:07;10.93;;;6.10;;
80623;SDS011;70269;44.768;9.600;2023-05-28T00:05:34;12.45;;;6.00;;
80623;SDS011;70269;44.768;9.600;2023-05-28T00:07:59;11.85;;;5.93;;
80623;SDS011;70269;44.768;9.600;2023-05-28T00:10:26;9.63;;;5.28;;
80623;SDS011;70269;44.768;9.600;2023-05-28T00:12:51;10.43;;;5.60;;
80623;SDS011;70269;44.768;9.600;2023-05-28T00:15:17;10.00;;;6.10;;
80623;SDS011;70269;44.768;9.600;2023-05-28T00:17:43;10.13;;;5.97;;
80623;SDS011;70269;44.768;9.600;2023-05-28T00:20:08;8.70;;;5.70;;
80623;SDS011;70269;44.768;9.600;2023-05-28T00:22:35;8.98;;;5.35;;
80623;SDS011;70269;44.768;9.600;2023-05-28T00:25:01;10.25;;;6.15;;
80623;SDS011;70269;44.768;9.600;2023-05-28T00:27:27;11.48;;;5.85;;
80623;SDS011;70269;44.768;9.600;2023-05-28T00:29:52;12.38;;;6.10;;
80623;SDS011;70269;44.768;9.600;2023-05-28T00:32:18;10.48;;;6.15;;
80623;SDS011;70269;44.768;9.600;2023-05-28T00:34:43;9.73;;;5.80;;
80623;SDS011;70269;44.768;9.600;2023-05-28T00:37:09;9.18;;;5.68;;
80623;SDS011;70269;44.768;9.600;2023-05-28T00:39:34;10.35;;;6.20;;
80623;SDS011;70269;44.768;9.600;2023-05-28T00:42:00;9.40;;;5.70;;
80623;SDS011;70269;44.768;9.600;2023-05-28T00:44:27;11.65;;;5.68;;
80623;SDS011;70269;44.768;9.600;2023-05-28T00:46:53;12.02;;;6.40;;
80623;SDS011;70269;44.768;9.600;2023-05-28T00:49:20;10.23;;;6.18;;
80623;SDS011;70269;44.768;9.600;2023-05-28T00:51:47;9.90;;;5.78;;
80623;SDS011;70269;44.768;9.600;2023-05-28T00:54:13;11.15;;;6.28;;
80623;SDS011;70269;44.768;9.600;2023-05-28T00:56:40;14.50;;;6.38;;
80623;SDS011;70269;44.768;9.600;2023-05-28T00:59:06;12.43;;;5.47;;
80623;SDS011;70269;44.768;9.600;2023-05-28T01:01:32;12.55;;;6.00;;
80623;SDS011;70269;44.768;9.600;2023-05-28T01:04:00;10.85;;;6.60;;
80623;SDS011;70269;44.768;9.600;2023-05-28T01:06:26;9.18;;;5.88;;
80623;SDS011;70269;44.768;9.600;2023-05-28T01:08:54;9.48;;;6.45;;
80623;SDS011;70269;44.768;9.600;2023-05-28T01:11:19;11.25;;;6.28;;
80623;SDS011;70269;44.768;9.600;2023-05-28T01:13:46;8.70;;;5.78;;
80623;SDS011;70269;44.768;9.600;2023-05-28T01:16:16;10.43;;;5.95;;
80623;SDS011;70269;44.768;9.600;2023-05-28T01:18:41;9.68;;;5.45;;
80623;SDS011;70269;44.768;9.600;2023-05-28T01:21:09;9.27;;;6.05;;
80623;SDS011;70269;44.768;9.600;2023-05-28T01:23:45;10.77;;;6.57;;
80623;SDS011;70269;44.768;9.600;2023-05-28T01:26:15;9.00;;;5.45;;
80623;SDS011;70269;44.768;9.600;2023-05-28T01:28:43;10.43;;;5.90;;
80623;SDS011;70269;44.768;9.600;2023-05-28T01:31:14;11.07;;;6.43;;
80623;SDS011;70269;44.768;9.600;2023-05-28T01:33:40;9.07;;;5.82;;
80623;SDS011;70269;44.768;9.600;2023-05-28T01:38:45;9.45;;;6.25;;
80623;SDS011;70269;44.768;9.600;2023-05-28T01:41:12;11.48;;;6.25;;
80623;SDS011;70269;44.768;9.600;2023-05-28T01:43:41;10.05;;;6.13;;
80623;SDS011;70269;44.768;9.600;2023-05-28T01:46:08;9.48;;;5.70;;
80623;SDS011;70269;44.768;9.600;2023-05-28T01:48:34;11.00;;;6.40;;
80623;SDS011;70269;44.768;9.600;2023-05-28T01:51:02;11.93;;;6.15;;
80623;SDS011;70269;44.768;9.600;2023-05-28T01:53:27;10.93;;;6.00;;
80623;SDS011;70269;44.768;9.600;2023-05-28T01:55:54;10.98;;;6.43;;
80623;SDS011;70269;44.768;9.600;2023-05-28T01:58:22;11.65;;;6.03;;
80623;SDS011;70269;44.768;9.600;2023-05-28T02:01:34;11.75;;;5.85;;
80623;SDS011;70269;44.768;9.600;2023-05-28T02:03:57;9.80;;;6.10;;
80623;SDS011;70269;44.768;9.600;2023-05-28T02:06:23;10.82;;;6.18;;
80623;SDS011;70269;44.768;9.600;2023-05-28T02:08:50;9.23;;;6.05;;
80623;SDS011;70269;44.768;9.600;2023-05-28T02:11:16;9.07;;;5.82;;
80623;SDS011;70269;44.768;9.600;2023-05-28T02:13:42;10.00;;;5.53;;
80623;SDS011;70269;44.768;9.600;2023-05-28T02:16:09;9.38;;;6.47;;
80623;SDS011;70269;44.768;9.600;2023-05-28T02:18:36;11.20;;;5.72;;
80623;SDS011;70269;44.768;9.600;2023-05-28T02:21:02;9.82;;;5.85;;
80623;SDS011;70269;44.768;9.600;2023-05-28T02:23:29;11.38;;;5.53;;
80623;SDS011;70269;44.768;9.600;2023-05-28T02:25:55;9.40;;;4.95;;
80623;SDS011;70269;44.768;9.600;2023-05-28T02:28:20;10.20;;;6.35;;
80623;SDS011;70269;44.768;9.600;2023-05-28T02:30:46;11.18;;;6.28;;
80623;SDS011;70269;44.768;9.600;2023-05-28T02:33:11;9.95;;;6.00;;
80623;SDS011;70269;44.768;9.600;2023-05-28T02:35:37;9.52;;;5.78;;
80623;SDS011;70269;44.768;9.600;2023-05-28T02:38:02;10.95;;;6.57;;
80623;SDS011;70269;44.768;9.600;2023-05-28T02:40:28;12.43;;;6.40;;
80623;SDS011;70269;44.768;9.600;2023-05-28T02:42:54;12.75;;;6.32;;
80623;SDS011;70269;44.768;9.600;2023-05-28T02:45:20;10.95;;;6.13;;
80623;SDS011;70269;44.768;9.600;2023-05-28T02:47:45;11.38;;;6.60;;
80623;SDS011;70269;44.768;9.600;2023-05-28T02:50:11;10.07;;;5.97;;
80623;SDS011;70269;44.768;9.600;2023-05-28T02:52:59;10.95;;;6.90;;
80623;SDS011;70269;44.768;9.600;2023-05-28T02:55:25;9.23;;;5.65;;
80623;SDS011;70269;44.768;9.600;2023-05-28T02:57:51;9.38;;;5.93;;
80623;SDS011;70269;44.768;9.600;2023-05-28T03:00:18;8.65;;;5.30;;
80623;SDS011;70269;44.768;9.600;2023-05-28T03:02:45;9.32;;;5.03;;
80623;SDS011;70269;44.768;9.600;2023-05-28T03:05:10;8.80;;;6.05;;
80623;SDS011;70269;44.768;9.600;2023-05-28T03:07:36;10.32;;;6.45;;
80623;SDS011;70269;44.768;9.600;2023-05-28T03:10:02;10.77;;;5.20;;
80623;SDS011;70269;44.768;9.600;2023-05-28T03:12:29;8.30;;;5.85;;
80623;SDS011;70269;44.768;9.600;2023-05-28T03:14:54;10.90;;;6.38;;
80623;SDS011;70269;44.768;9.600;2023-05-28T03:17:20;9.63;;;5.63;;
80623;SDS011;70269;44.768;9.600;2023-05-28T03:19:46;9.52;;;5.18;;
80623;SDS011;70269;44.768;9.600;2023-05-28T03:22:14;10.73;;;6.45;;
80623;SDS011;70269;44.768;9.600;2023-05-28T03:24:41;10.05;;;5.97;;
80623;SDS011;70269;44.768;9.600;2023-05-28T03:27:10;8.48;;;5.13;;
80623;SDS011;70269;44.768;9.600;2023-05-28T03:29:37;9.70;;;5.38;;
80623;SDS011;70269;44.768;9.600;2023-05-28T03:32:25;8.73;;;5.55;;
80623;SDS011;70269;44.768;9.600;2023-05-28T03:34:51;8.43;;;5.03;;
80623;SDS011;70269;44.768;9.600;2023-05-28T03:37:24;8.55;;;4.95;;
80623;SDS011;70269;44.768;9.600;2023-05-28T03:39:52;11.70;;;6.03;;
80623;SDS011;70269;44.768;9.600;2023-05-28T03:42:18;8.15;;;4.82;;
80623;SDS011;70269;44.768;9.600;2023-05-28T03:44:44;9.98;;;4.97;;
80623;SDS011;70269;44.768;9.600;2023-05-28T03:47:10;10.40;;;5.43;;
80623;SDS011;70269;44.768;9.600;2023-05-28T03:49:35;9.77;;;5.18;;
80623;SDS011;70269;44.768;9.600;2023-05-28T03:52:01;11.52;;;6.13;;
80623;SDS011;70269;44.768;9.600;2023-05-28T03:54:32;9.32;;;5.45;;
80623;SDS011;70269;44.768;9.600;2023-05-28T03:56:58;11.93;;;5.80;;
80623;SDS011;70269;44.768;9.600;2023-05-28T03:59:23;9.00;;;5.65;;
80623;SDS011;70269;44.768;9.600;2023-05-28T04:01:52;8.85;;;5.40;;
80623;SDS011;70269;44.768;9.600;2023-05-28T04:04:18;9.55;;;6.13;;
80623;SDS011;70269;44.768;9.600;2023-05-28T04:06:44;9.68;;;5.90;;
80623;SDS011;70269;44.768;9.600;2023-05-28T04:09:11;10.13;;;6.18;;
80623;SDS011;70269;44.768;9.600;2023-05-28T04:11:36;11.48;;;5.85;;
80623;SDS011;70269;44.768;9.600;2023-05-28T04:14:10;9.82;;;6.57;;
80623;SDS011;70269;44.768;9.600;2023-05-28T04:16:36;9.63;;;5.63;;
80623;SDS011;70269;44.768;9.600;2023-05-28T04:19:01;10.27;;;5.97;;
80623;SDS011;70269;44.768;9.600;2023-05-28T04:21:28;9.75;;;6.03;;
80623;SDS011;70269;44.768;9.600;2023-05-28T04:23:54;9.65;;;6.28;;
80623;SDS011;70269;44.768;9.600;2023-05-28T04:26:21;9.63;;;5.53;;
80623;SDS011;70269;44.768;9.600;2023-05-28T04:28:47;10.05;;;5.50;;
80623;SDS011;70269;44.768;9.600;2023-05-28T04:31:13;8.98;;;5.10;;
80623;SDS011;70269;44.768;9.600;2023-05-28T04:33:39;8.75;;;4.82;;
80623;SDS011;70269;44.768;9.600;2023-05-28T04:36:06;8.07;;;4.90;;
80623;SDS011;70269;44.768;9.600;2023-05-28T04:38:34;9.88;;;5.43;;
80623;SDS011;70269;44.768;9.600;2023-05-28T04:41:01;10.57;;;5.05;;
80623;SDS011;70269;44.768;9.600;2023-05-28T04:43:29;8.75;;;5.32;;
80623;SDS011;70269;44.768;9.600;2023-05-28T04:45:55;10.05;;;5.13;;
80623;SDS011;70269;44.768;9.600;2023-05-28T04:48:23;14.23;;;6.10;;
80623;SDS011;70269;44.768;9.600;2023-05-28T04:50:50;11.60;;;5.88;;
80623;SDS011;70269;44.768;9.600;2023-05-28T04:53:16;9.30;;;5.20;;
80623;SDS011;70269;44.768;9.600;2023-05-28T04:55:42;8.52;;;5.15;;
80623;SDS011;70269;44.768;9.600;2023-05-28T04:58:09;9.05;;;5.40;;
80623;SDS011;70269;44.768;9.600;2023-05-28T05:00:36;8.68;;;5.55;;
80623;SDS011;70269;44.768;9.600;2023-05-28T05:03:01;9.68;;;5.28;;
80623;SDS011;70269;44.768;9.600;2023-05-28T05:05:27;9.60;;;5.20;;
80623;SDS011;70269;44.768;9.600;2023-05-28T05:07:53;9.52;;;5.57;;
80623;SDS011;70269;44.768;9.600;2023-05-28T05:10:19;10.30;;;5.43;;
80623;SDS011;70269;44.768;9.600;2023-05-28T05:12:47;10.18;;;5.88;;
80623;SDS011;70269;44.768;9.600;2023-05-28T05:15:13;9.18;;;5.25;;
80623;SDS011;70269;44.768;9.600;2023-05-28T05:17:39;8.50;;;5.25;;
80623;SDS011;70269;44.768;9.600;2023-05-28T05:20:06;7.30;;;4.60;;
80623;SDS011;70269;44.768;9.600;2023-05-28T05:22:33;8.90;;;5.10;;
80623;SDS011;70269;44.768;9.600;2023-05-28T05:25:00;10.20;;;5.30;;
80623;SDS011;70269;44.768;9.600;2023-05-28T05:27:26;10.85;;;5.20;;
80623;SDS011;70269;44.768;9.600;2023-05-28T05:29:53;11.88;;;6.05;;
80623;SDS011;70269;44.768;9.600;2023-05-28T05:32:19;9.00;;;5.20;;
80623;SDS011;70269;44.768;9.600;2023-05-28T05:34:45;9.25;;;5.28;;
80623;SDS011;70269;44.768;9.600;2023-05-28T05:37:25;9.27;;;5.05;;
80623;SDS011;70269;44.768;9.600;2023-05-28T05:40:14;10.00;;;4.82;;
80623;SDS011;70269;44.768;9.600;2023-05-28T05:42:51;8.68;;;5.43;;
80623;SDS011;70269;44.768;9.600;2023-05-28T05:45:18;8.55;;;4.75;;
80623;SDS011;70269;44.768;9.600;2023-05-28T05:47:43;9.07;;;5.22;;
80623;SDS011;70269;44.768;9.600;2023-05-28T05:50:10;8.00;;;4.10;;
80623;SDS011;70269;44.768;9.600;2023-05-28T05:52:36;8.82;;;4.80;;
80623;SDS011;70269;44.768;9.600;2023-05-28T05:55:03;9.50;;;5.03;;
80623;SDS011;70269;44.768;9.600;2023-05-28T05:57:29;9.63;;;5.40;;
80623;SDS011;70269;44.768;9.600;2023-05-28T05:59:57;7.32;;;5.25;;
80623;SDS011;70269;44.768;9.600;2023-05-28T06:02:22;8.30;;;4.30;;
80623;SDS011;70269;44.768;9.600;2023-05-28T06:04:48;8.52;;;4.93;;
80623;SDS011;70269;44.768;9.600;2023-05-28T06:07:38;8.48;;;5.25;;
80623;SDS011;70269;44.768;9.600;2023-05-28T06:10:25;10.63;;;5.38;;
80623;SDS011;70269;44.768;9.600;2023-05-28T06:12:51;8.55;;;5.60;;
80623;SDS011;70269;44.768;9.600;2023-05-28T06:15:17;7.63;;;4.80;;
80623;SDS011;70269;44.768;9.600;2023-05-28T06:17:42;9.63;;;5.22;;
80623;SDS011;70269;44.768;9.600;2023-05-28T06:20:08;9.73;;;5.63;;
80623;SDS011;70269;44.768;9.600;2023-05-28T06:22:34;10.13;;;5.22;;
80623;SDS011;70269;44.768;9.600;2023-05-28T06:25:00;8.48;;;4.78;;
80623;SDS011;70269;44.768;9.600;2023-05-28T06:27:26;8.18;;;4.50;;
80623;SDS011;70269;44.768;9.600;2023-05-28T06:29:53;8.30;;;4.68;;
80623;SDS011;70269;44.768;9.600;2023-05-28T06:32:18;6.25;;;3.95;;
80623;SDS011;70269;44.768;9.600;2023-05-28T06:34:45;10.07;;;5.05;;
80623;SDS011;70269;44.768;9.600;2023-05-28T06:37:11;7.72;;;5.05;;
80623;SDS011;70269;44.768;9.600;2023-05-28T06:39:38;9.15;;;5.25;;
80623;SDS011;70269;44.768;9.600;2023-05-28T06:42:04;8.98;;;4.75;;
80623;SDS011;70269;44.768;9.600;2023-05-28T06:44:56;8.90;;;4.85;;
80623;SDS011;70269;44.768;9.600;2023-05-28T06:47:24;7.72;;;4.22;;
80623;SDS011;70269;44.768;9.600;2023-05-28T06:49:49;6.38;;;4.55;;
80623;SDS011;70269;44.768;9.600;2023-05-28T06:52:15;8.90;;;4.75;;
80623;SDS011;70269;44.768;9.600;2023-05-28T06:54:41;7.22;;;4.40;;
80623;SDS011;70269;44.768;9.600;2023-05-28T06:57:08;10.48;;;4.63;;
80623;SDS011;70269;44.768;9.600;2023-05-28T06:59:56;6.32;;;4.07;;
80623;SDS011;70269;44.768;9.600;2023-05-28T07:02:44;8.35;;;4.82;;
80623;SDS011;70269;44.768;9.600;2023-05-28T07:05:29;8.35;;;4.70;;
80623;SDS011;70269;44.768;9.600;2023-05-28T07:07:55;9.88;;;4.90;;
80623;SDS011;70269;44.768;9.600;2023-05-28T07:10:21;7.10;;;4.07;;
80623;SDS011;70269;44.768;9.600;2023-05-28T07:12:47;7.38;;;4.65;;
80623;SDS011;70269;44.768;9.600;2023-05-28T07:15:13;7.25;;;4.55;;
80623;SDS011;70269;44.768;9.600;2023-05-28T07:17:41;7.78;;;4.30;;
80623;SDS011;70269;44.768;9.600;2023-05-28T07:20:06;8.15;;;3.78;;
80623;SDS011;70269;44.768;9.600;2023-05-28T07:23:04;7.43;;;4.60;;
80623;SDS011;70269;44.768;9.600;2023-05-28T07:25:30;8.50;;;5.18;;
80623;SDS011;70269;44.768;9.600;2023-05-28T07:27:56;8.27;;;4.55;;
80623;SDS011;70269;44.768;9.600;2023-05-28T07:30:28;8.98;;;5.32;;
80623;SDS011;70269;44.768;9.600;2023-05-28T07:32:57;9.80;;;5.25;;
80623;SDS011;70269;44.768;9.600;2023-05-28T07:35:25;9.73;;;5.57;;
80623;SDS011;70269;44.768;9.600;2023-05-28T07:37:51;10.65;;;6.25;;
80623;SDS011;70269;44.768;9.600;2023-05-28T07:42:45;8.27;;;5.20;;
80623;SDS011;70269;44.768;9.600;2023-05-28T07:45:11;9.65;;;5.82;;
80623;SDS011;70269;44.768;9.600;2023-05-28T07:47:37;9.38;;;6.20;;
80623;SDS011;70269;44.768;9.600;2023-05-28T07:50:09;8.45;;;6.00;;
80623;SDS011;70269;44.768;9.600;2023-05-28T07:52:51;8.48;;;5.50;;
80623;SDS011;70269;44.768;9.600;2023-05-28T07:55:16;9.57;;;5.88;;
80623;SDS011;70269;44.768;9.600;2023-05-28T07:57:43;10.18;;;6.03;;
80623;SDS011;70269;44.768;9.600;2023-05-28T08:00:09;9.88;;;5.57;;
80623;SDS011;70269;44.768;9.600;2023-05-28T08:02:51;9.18;;;5.72;;
80623;SDS011;70269;44.768;9.600;2023-05-28T08:05:18;10.63;;;5.60;;
80623;SDS011;70269;44.768;9.600;2023-05-28T08:07:44;8.45;;;5.88;;
80623;SDS011;70269;44.768;9.600;2023-05-28T08:10:11;10.07;;;5.95;;
80623;SDS011;70269;44.768;9.600;2023-05-28T08:12:37;11.15;;;6.28;;
80623;SDS011;70269;44.768;9.600;2023-05-28T08:15:03;9.52;;;5.55;;
80623;SDS011;70269;44.768;9.600;2023-05-28T08:17:31;11.60;;;6.97;;
80623;SDS011;70269;44.768;9.600;2023-05-28T08:20:03;10.93;;;6.45;;
80623;SDS011;70269;44.768;9.600;2023-05-28T08:22:45;11.30;;;6.35;;
80623;SDS011;70269;44.768;9.600;2023-05-28T08:25:10;11.82;;;7.43;;
80623;SDS011;70269;44.768;9.600;2023-05-28T08:27:37;11.88;;;6.75;;
80623;SDS011;70269;44.768;9.600;2023-05-28T08:30:02;13.23;;;7.25;;
80623;SDS011;70269;44.768;9.600;2023-05-28T08:32:29;15.23;;;7.57;;
80623;SDS011;70269;44.768;9.600;2023-05-28T08:34:56;20.25;;;8.32;;
80623;SDS011;70269;44.768;9.600;2023-05-28T08:37:21;12.07;;;5.93;;
80623;SDS011;70269;44.768;9.600;2023-05-28T08:40:06;10.70;;;6.70;;
80623;SDS011;70269;44.768;9.600;2023-05-28T08:42:35;12.63;;;6.78;;
80623;SDS011;70269;44.768;9.600;2023-05-28T08:45:04;10.25;;;5.80;;
80623;SDS011;70269;44.768;9.600;2023-05-28T08:47:32;11.85;;;6.65;;
80623;SDS011;70269;44.768;9.600;2023-05-28T08:52:40;10.30;;;6.40;;
80623;SDS011;70269;44.768;9.600;2023-05-28T08:55:07;9.65;;;6.47;;
80623;SDS011;70269;44.768;9.600;2023-05-28T08:57:40;11.40;;;6.63;;
80623;SDS011;70269;44.768;9.600;2023-05-28T09:00:06;10.43;;;6.45;;
80623;SDS011;70269;44.768;9.600;2023-05-28T09:02:47;14.95;;;7.97;;
80623;SDS011;70269;44.768;9.600;2023-05-28T09:05:13;9.50;;;6.32;;
80623;SDS011;70269;44.768;9.600;2023-05-28T09:07:38;8.48;;;5.88;;
80623;SDS011;70269;44.768;9.600;2023-05-28T09:10:04;10.30;;;6.32;;
80623;SDS011;70269;44.768;9.600;2023-05-28T09:12:34;12.50;;;6.65;;
80623;SDS011;70269;44.768;9.600;2023-05-28T09:15:03;12.85;;;6.90;;
80623;SDS011;70269;44.768;9.600;2023-05-28T09:19:58;10.13;;;6.30;;
80623;SDS011;70269;44.768;9.600;2023-05-28T09:25:01;13.85;;;6.57;;
80623;SDS011;70269;44.768;9.600;2023-05-28T09:27:56;13.10;;;6.63;;
80623;SDS011;70269;44.768;9.600;2023-05-28T09:30:21;10.02;;;6.85;;
80623;SDS011;70269;44.768;9.600;2023-05-28T09:33:09;11.30;;;6.68;;
80623;SDS011;70269;44.768;9.600;2023-05-28T09:35:34;11.75;;;7.28;;
80623;SDS011;70269;44.768;9.600;2023-05-28T09:40:36;11.13;;;6.72;;
80623;SDS011;70269;44.768;9.600;2023-05-28T09:43:09;16.33;;;7.60;;
80623;SDS011;70269;44.768;9.600;2023-05-28T09:45:35;10.77;;;6.53;;
80623;SDS011;70269;44.768;9.600;2023-05-28T09:48:01;13.18;;;6.65;;
80623;SDS011;70269;44.768;9.600;2023-05-28T09:50:28;13.40;;;7.53;;
80623;SDS011;70269;44.768;9.600;2023-05-28T09:52:54;11.45;;;6.88;;
80623;SDS011;70269;44.768;9.600;2023-05-28T09:55:24;11.93;;;7.88;;
80623;SDS011;70269;44.768;9.600;2023-05-28T10:00:30;12.07;;;7.32;;
80623;SDS011;70269;44.768;9.600;2023-05-28T10:05:21;11.85;;;7.60;;
80623;SDS011;70269;44.768;9.600;2023-05-28T10:07:49;11.77;;;7.43;;
80623;SDS011;70269;44.768;9.600;2023-05-28T10:10:17;11.43;;;6.95;;
80623;SDS011;70269;44.768;9.600;2023-05-28T10:12:45;10.68;;;6.95;;
80623;SDS011;70269;44.768;9.600;2023-05-28T10:15:11;10.02;;;7.10;;
80623;SDS011;70269;44.768;9.600;2023-05-28T10:17:38;11.10;;;6.60;;
80623;SDS011;70269;44.768;9.600;2023-05-28T10:20:04;13.43;;;7.97;;
80623;SDS011;70269;44.768;9.600;2023-05-28T10:22:30;11.07;;;7.13;;
80623;SDS011;70269;44.768;9.600;2023-05-28T10:24:57;15.07;;;7.45;;
80623;SDS011;70269;44.768;9.600;2023-05-28T10:27:29;14.52;;;7.05;;
80623;SDS011;70269;44.768;9.600;2023-05-28T10:29:55;12.85;;;6.63;;
80623;SDS011;70269;44.768;9.600;2023-05-28T10:32:21;10.85;;;6.13;;
80623;SDS011;70269;44.768;9.600;2023-05-28T10:34:46;11.82;;;7.10;;
80623;SDS011;70269;44.768;9.600;2023-05-28T10:37:12;10.55;;;6.78;;
80623;SDS011;70269;44.768;9.600;2023-05-28T10:39:41;12.75;;;6.70;;
80623;SDS011;70269;44.768;9.600;2023-05-28T10:42:09;10.15;;;6.72;;
80623;SDS011;70269;44.768;9.600;2023-05-28T10:47:37;11.35;;;6.68;;
80623;SDS011;70269;44.768;9.600;2023-05-28T10:50:15;10.43;;;6.30;;
80623;SDS011;70269;44.768;9.600;2023-05-28T10:52:43;9.85;;;6.22;;
80623;SDS011;70269;44.768;9.600;2023-05-28T10:55:27;10.95;;;7.38;;
80623;SDS011;70269;44.768;9.600;2023-05-28T10:57:53;11.45;;;6.65;;
80623;SDS011;70269;44.768;9.600;2023-05-28T11:00:34;9.75;;;5.93;;
80623;SDS011;70269;44.768;9.600;2023-05-28T11:03:05;13.05;;;7.10;;
80623;SDS011;70269;44.768;9.600;2023-05-28T11:05:30;12.95;;;7.70;;
80623;SDS011;70269;44.768;9.600;2023-05-28T11:07:56;11.13;;;6.53;;
80623;SDS011;70269;44.768;9.600;2023-05-28T11:10:22;10.93;;;7.18;;
80623;SDS011;70269;44.768;9.600;2023-05-28T11:12:50;10.70;;;6.70;;
80623;SDS011;70269;44.768;9.600;2023-05-28T11:15:15;11.82;;;7.18;;
80623;SDS011;70269;44.768;9.600;2023-05-28T11:17:41;11.73;;;6.78;;
80623;SDS011;70269;44.768;9.600;2023-05-28T11:20:18;10.60;;;6.30;;
80623;SDS011;70269;44.768;9.600;2023-05-28T11:22:44;10.15;;;5.88;;
80623;SDS011;70269;44.768;9.600;2023-05-28T11:25:10;8.88;;;5.68;;
80623;SDS011;70269;44.768;9.600;2023-05-28T11:27:37;10.27;;;6.15;;
80623;SDS011;70269;44.768;9.600;2023-05-28T11:32:33;12.07;;;6.55;;
80623;SDS011;70269;44.768;9.600;2023-05-28T11:34:59;10.65;;;5.97;;
80623;SDS011;70269;44.768;9.600;2023-05-28T11:37:26;11.57;;;6.75;;
80623;SDS011;70269;44.768;9.600;2023-05-28T11:39:54;9.90;;;7.05;;
80623;SDS011;70269;44.768;9.600;2023-05-28T11:42:21;11.57;;;7.25;;
80623;SDS011;70269;44.768;9.600;2023-05-28T11:44:48;11.82;;;6.93;;
80623;SDS011;70269;44.768;9.600;2023-05-28T11:47:15;10.85;;;6.75;;
80623;SDS011;70269;44.768;9.600;2023-05-28T11:49:41;10.95;;;6.70;;
80623;SDS011;70269;44.768;9.600;2023-05-28T11:52:17;13.57;;;7.43;;
80623;SDS011;70269;44.768;9.600;2023-05-28T11:54:53;9.55;;;6.68;;
80623;SDS011;70269;44.768;9.600;2023-05-28T11:57:22;10.90;;;6.90;;
80623;SDS011;70269;44.768;9.600;2023-05-28T12:02:41;13.15;;;7.93;;
80623;SDS011;70269;44.768;9.600;2023-05-28T12:05:14;11.20;;;7.03;;
80623;SDS011;70269;44.768;9.600;2023-05-28T12:07:50;11.85;;;6.75;;
80623;SDS011;70269;44.768;9.600;2023-05-28T12:10:18;10.82;;;7.00;;
80623;SDS011;70269;44.768;9.600;2023-05-28T12:12:48;11.35;;;6.72;;
80623;SDS011;70269;44.768;9.600;2023-05-28T12:15:20;12.25;;;6.72;;
80623;SDS011;70269;44.768;9.600;2023-05-28T12:17:51;11.02;;;6.82;;
80623;SDS011;70269;44.768;9.600;2023-05-28T12:23:10;10.55;;;6.20;;
80623;SDS011;70269;44.768;9.600;2023-05-28T12:28:12;11.00;;;6.43;;
80623;SDS011;70269;44.768;9.600;2023-05-28T12:30:39;9.98;;;6.72;;
80623;SDS011;70269;44.768;9.600;2023-05-28T12:33:05;10.63;;;6.32;;
80623;SDS011;70269;44.768;9.600;2023-05-28T12:35:31;9.30;;;5.93;;
80623;SDS011;70269;44.768;9.600;2023-05-28T12:37:56;10.07;;;5.95;;
80623;SDS011;70269;44.768;9.600;2023-05-28T12:40:22;10.18;;;6.13;;
80623;SDS011;70269;44.768;9.600;2023-05-28T12:42:47;14.77;;;7.72;;
80623;SDS011;70269;44.768;9.600;2023-05-28T12:45:13;12.05;;;6.50;;
80623;SDS011;70269;44.768;9.600;2023-05-28T12:47:39;9.90;;;5.80;;
80623;SDS011;70269;44.768;9.600;2023-05-28T12:50:04;11.23;;;6.50;;
80623;SDS011;70269;44.768;9.600;2023-05-28T12:52:30;9.82;;;6.07;;
80623;SDS011;70269;44.768;9.600;2023-05-28T12:54:58;9.93;;;6.22;;
80623;SDS011;70269;44.768;9.600;2023-05-28T12:57:24;10.73;;;6.65;;
80623;SDS011;70269;44.768;9.600;2023-05-28T12:59:50;11.98;;;6.35;;
80623;SDS011;70269;44.768;9.600;2023-05-28T13:02:15;10.80;;;6.40;;
80623;SDS011;70269;44.768;9.600;2023-05-28T13:04:41;9.25;;;6.05;;
80623;SDS011;70269;44.768;9.600;2023-05-28T13:07:06;8.98;;;5.50;;
80623;SDS011;70269;44.768;9.600;2023-05-28T13:09:33;10.98;;;6.50;;
80623;SDS011;70269;44.768;9.600;2023-05-28T13:11:59;8.23;;;5.35;;
80623;SDS011;70269;44.768;9.600;2023-05-28T13:14:25;8.50;;;5.40;;
80623;SDS011;70269;44.768;9.600;2023-05-28T13:16:51;9.18;;;6.03;;
80623;SDS011;70269;44.768;9.600;2023-05-28T13:19:19;12.45;;;6.55;;
80623;SDS011;70269;44.768;9.600;2023-05-28T13:21:45;10.63;;;5.82;;
80623;SDS011;70269;44.768;9.600;2023-05-28T13:24:10;10.80;;;6.38;;
80623;SDS011;70269;44.768;9.600;2023-05-28T13:26:36;10.73;;;6.57;;
80623;SDS011;70269;44.768;9.600;2023-05-28T13:29:02;10.32;;;6.20;;
80623;SDS011;70269;44.768;9.600;2023-05-28T13:31:32;9.50;;;6.10;;
80623;SDS011;70269;44.768;9.600;2023-05-28T13:33:58;10.10;;;6.28;;
80623;SDS011;70269;44.768;9.600;2023-05-28T13:36:23;9.85;;;5.78;;
80623;SDS011;70269;44.768;9.600;2023-05-28T13:38:49;13.43;;;8.93;;
80623;SDS011;70269;44.768;9.600;2023-05-28T13:41:15;10.32;;;5.97;;
80623;SDS011;70269;44.768;9.600;2023-05-28T13:43:41;12.02;;;6.80;;
80623;SDS011;70269;44.768;9.600;2023-05-28T13:46:07;9.90;;;6.32;;
80623;SDS011;70269;44.768;9.600;2023-05-28T13:48:33;9.18;;;5.82;;
80623;SDS011;70269;44.768;9.600;2023-05-28T13:50:59;12.05;;;5.60;;
80623;SDS011;70269;44.768;9.600;2023-05-28T13:53:26;9.43;;;5.93;;
80623;SDS011;70269;44.768;9.600;2023-05-28T13:55:52;12.90;;;6.40;;
80623;SDS011;70269;44.768;9.600;2023-05-28T13:58:18;9.80;;;6.38;;
80623;SDS011;70269;44.768;9.600;2023-05-28T14:00:43;9.90;;;6.88;;
80623;SDS011;70269;44.768;9.600;2023-05-28T14:03:08;10.05;;;5.63;;
80623;SDS011;70269;44.768;9.600;2023-05-28T14:05:38;9.00;;;5.70;;
80623;SDS011;70269;44.768;9.600;2023-05-28T14:08:04;9.02;;;6.25;;
80623;SDS011;70269;44.768;9.600;2023-05-28T14:10:30;11.70;;;6.90;;
80623;SDS011;70269;44.768;9.600;2023-05-28T14:12:55;10.07;;;6.22;;
80623;SDS011;70269;44.768;9.600;2023-05-28T14:15:21;10.05;;;6.65;;
80623;SDS011;70269;44.768;9.600;2023-05-28T14:17:46;10.73;;;6.00;;
80623;SDS011;70269;44.768;9.600;2023-05-28T14:20:12;9.57;;;5.70;;
80623;SDS011;70269;44.768;9.600;2023-05-28T14:22:37;8.98;;;6.00;;
80623;SDS011;70269;44.768;9.600;2023-05-28T14:25:03;11.43;;;5.82;;
80623;SDS011;70269;44.768;9.600;2023-05-28T14:27:29;10.27;;;6.05;;
80623;SDS011;70269;44.768;9.600;2023-05-28T14:29:54;8.05;;;5.75;;
80623;SDS011;70269;44.768;9.600;2023-05-28T14:32:20;9.82;;;6.15;;
80623;SDS011;70269;44.768;9.600;2023-05-28T14:34:45;11.40;;;6.25;;
80623;SDS011;70269;44.768;9.600;2023-05-28T14:37:11;9.27;;;5.57;;
80623;SDS011;70269;44.768;9.600;2023-05-28T14:39:36;8.65;;;5.35;;
80623;SDS011;70269;44.768;9.600;2023-05-28T14:42:02;10.13;;;6.30;;
80623;SDS011;70269;44.768;9.600;2023-05-28T14:44:28;8.90;;;5.72;;
80623;SDS011;70269;44.768;9.600;2023-05-28T14:46:53;10.45;;;5.97;;
80623;SDS011;70269;44.768;9.600;2023-05-28T14:49:19;8.75;;;5.75;;
80623;SDS011;70269;44.768;9.600;2023-05-28T14:51:44;9.80;;;6.07;;
80623;SDS011;70269;44.768;9.600;2023-05-28T14:54:10;11.35;;;6.60;;
80623;SDS011;70269;44.768;9.600;2023-05-28T14:56:35;10.65;;;5.68;;
80623;SDS011;70269;44.768;9.600;2023-05-28T14:59:01;9.73;;;6.25;;
80623;SDS011;70269;44.768;9.600;2023-05-28T15:01:27;9.63;;;6.40;;
80623;SDS011;70269;44.768;9.600;2023-05-28T15:03:52;11.95;;;6.45;;
80623;SDS011;70269;44.768;9.600;2023-05-28T15:06:18;10.32;;;6.00;;
80623;SDS011;70269;44.768;9.600;2023-05-28T15:08:44;9.95;;;6.15;;
80623;SDS011;70269;44.768;9.600;2023-05-28T15:11:10;10.32;;;6.45;;
80623;SDS011;70269;44.768;9.600;2023-05-28T15:13:39;9.65;;;6.07;;
80623;SDS011;70269;44.768;9.600;2023-05-28T15:16:05;8.23;;;4.97;;
80623;SDS011;70269;44.768;9.600;2023-05-28T15:18:31;8.27;;;5.18;;